createdAt,value
2017-12-03T00:01:43.675Z,41.60
2017-12-03T00:04:15.975Z,41.50
2017-12-03T00:06:54.369Z,41.50
2017-12-03T00:09:27.269Z,41.40
2017-12-03T00:11:59.454Z,41.30
2017-12-03T00:14:30.883Z,41.30
2017-12-03T00:19:43.083Z,41.60
2017-12-03T00:22:14.535Z,41.80
2017-12-03T00:27:41.287Z,42.20
2017-12-03T00:30:13.082Z,42.10
2017-12-03T00:32:44.322Z,42.00
2017-12-03T00:35:15.350Z,41.80
2017-12-03T00:37:45.014Z,42.30
2017-12-03T00:40:17.087Z,41.70
2017-12-03T00:42:47.327Z,41.50
2017-12-03T00:45:18.229Z,41.50
2017-12-03T00:47:49.946Z,41.40
2017-12-03T00:50:21.172Z,41.40
2017-12-03T00:52:53.195Z,41.40
2017-12-03T00:55:24.381Z,41.90
2017-12-03T00:57:58.379Z,41.50
2017-12-03T01:00:33.075Z,41.90
2017-12-03T01:03:10.081Z,42.10
2017-12-03T01:05:44.885Z,42.70
2017-12-03T01:08:17.086Z,42.00
2017-12-03T01:10:49.583Z,42.00
2017-12-03T01:13:18.788Z,41.80
2017-12-03T01:15:52.411Z,41.70
2017-12-03T01:18:24.277Z,41.50
2017-12-03T01:20:56.415Z,41.60
2017-12-03T01:23:32.398Z,41.50
2017-12-03T01:26:06.285Z,41.40
2017-12-03T01:28:41.279Z,41.40
2017-12-03T01:31:16.934Z,41.30
2017-12-03T01:33:51.365Z,41.40
2017-12-03T01:36:25.093Z,41.70
2017-12-03T01:38:57.604Z,42.30
2017-12-03T01:41:29.292Z,42.20
2017-12-03T01:43:59.498Z,42.20
2017-12-03T01:46:31.695Z,42.10
2017-12-03T01:49:05.433Z,42.00
2017-12-03T01:51:37.840Z,41.90
2017-12-03T01:54:11.430Z,41.80
2017-12-03T01:56:58.231Z,41.70
2017-12-03T01:59:28.090Z,41.60
2017-12-03T02:01:58.831Z,41.50
2017-12-03T02:04:28.579Z,41.90
2017-12-03T02:06:57.585Z,41.40
2017-12-03T02:09:28.936Z,41.30
2017-12-03T02:11:58.175Z,41.30
2017-12-03T02:14:28.033Z,41.70
2017-12-03T02:16:58.377Z,42.00
2017-12-03T02:22:14.554Z,42.70
2017-12-03T02:24:44.340Z,42.90
2017-12-03T02:27:14.212Z,42.80
2017-12-03T02:29:43.184Z,42.80
2017-12-03T02:32:13.535Z,42.50
2017-12-03T02:34:43.071Z,42.50
2017-12-03T02:37:11.908Z,42.30
2017-12-03T02:39:46.525Z,42.10
2017-12-03T02:42:15.523Z,42.00
2017-12-03T02:44:46.027Z,41.80
2017-12-03T02:47:15.887Z,41.70
2017-12-03T02:49:44.760Z,41.70
2017-12-03T02:52:14.112Z,41.60
2017-12-03T02:54:43.101Z,41.60
2017-12-03T02:57:12.559Z,41.60
2017-12-03T02:59:41.970Z,41.80
2017-12-03T03:02:11.322Z,42.10
2017-12-03T03:04:41.124Z,42.30
2017-12-03T03:07:11.568Z,42.20
2017-12-03T03:09:40.711Z,42.00
2017-12-03T03:12:10.912Z,41.90
2017-12-03T03:14:42.908Z,41.80
2017-12-03T03:17:13.343Z,41.80
2017-12-03T03:19:44.231Z,41.60
2017-12-03T03:22:14.999Z,41.50
2017-12-03T03:24:44.421Z,41.50
2017-12-03T03:27:15.583Z,41.40
2017-12-03T03:29:47.647Z,41.30
2017-12-03T03:32:18.278Z,41.60
2017-12-03T03:34:47.099Z,41.30
2017-12-03T03:37:18.277Z,41.90
2017-12-03T03:39:46.630Z,41.90
2017-12-03T03:42:15.368Z,42.20
2017-12-03T03:44:46.301Z,42.10
2017-12-03T03:47:15.157Z,42.00
2017-12-03T03:49:44.947Z,41.90
2017-12-03T03:52:24.527Z,41.70
2017-12-03T03:54:53.323Z,41.70
2017-12-03T03:57:22.530Z,41.60
2017-12-03T03:59:52.345Z,41.50
2017-12-03T04:02:37.966Z,41.40
2017-12-03T04:05:07.288Z,41.40
2017-12-03T04:07:37.224Z,41.30
2017-12-03T04:10:06.514Z,41.30
2017-12-03T04:12:36.218Z,41.30
2017-12-03T04:15:06.996Z,41.50
2017-12-03T04:17:37.590Z,42.20
2017-12-03T04:20:07.640Z,42.10
2017-12-03T04:22:37.807Z,42.10
2017-12-03T04:25:06.529Z,42.00
2017-12-03T04:33:15.497Z,41.60
2017-12-03T04:35:46.300Z,41.60
2017-12-03T04:38:18.893Z,41.50
2017-12-03T04:40:49.997Z,41.50
2017-12-03T04:43:19.316Z,41.40
2017-12-03T04:45:48.808Z,41.40
2017-12-03T04:48:24.053Z,41.30
2017-12-03T04:50:52.778Z,41.30
2017-12-03T04:53:22.112Z,41.60
2017-12-03T04:55:50.804Z,42.00
2017-12-03T04:58:19.536Z,42.10
2017-12-03T05:00:49.630Z,42.00
2017-12-03T05:03:19.964Z,42.00
2017-12-03T05:05:48.424Z,42.00
2017-12-03T05:08:18.238Z,41.70
2017-12-03T05:10:47.441Z,41.70
2017-12-03T05:13:16.085Z,41.60
2017-12-03T05:15:44.652Z,41.60
2017-12-03T05:18:13.869Z,41.50
2017-12-03T05:20:43.225Z,41.40
2017-12-03T05:23:12.740Z,41.40
2017-12-03T05:25:43.161Z,41.30
2017-12-03T05:28:14.160Z,41.40
2017-12-03T05:30:43.741Z,41.60
2017-12-03T05:33:12.932Z,41.90
2017-12-03T05:35:43.326Z,42.50
2017-12-03T05:38:13.562Z,42.50
2017-12-03T05:40:43.070Z,42.90
2017-12-03T05:43:12.330Z,43.00
2017-12-03T05:45:42.069Z,42.80
2017-12-03T05:48:12.068Z,42.50
2017-12-03T05:50:40.912Z,42.50
2017-12-03T05:53:10.868Z,42.20
2017-12-03T05:55:40.706Z,42.20
2017-12-03T05:58:10.112Z,42.00
2017-12-03T06:00:42.479Z,41.90
2017-12-03T06:03:11.768Z,41.90
2017-12-03T06:05:41.270Z,41.80
2017-12-03T06:08:10.794Z,41.70
2017-12-03T06:10:40.330Z,41.60
2017-12-03T06:13:13.505Z,41.60
2017-12-03T06:15:42.044Z,41.80
2017-12-03T06:18:10.624Z,42.00
2017-12-03T06:20:39.060Z,42.40
2017-12-03T06:23:12.373Z,42.40
2017-12-03T06:25:41.380Z,42.30
2017-12-03T06:28:10.707Z,42.20
2017-12-03T06:30:40.191Z,42.00
2017-12-03T06:33:08.867Z,41.90
2017-12-03T06:35:37.848Z,41.80
2017-12-03T06:38:07.479Z,41.80
2017-12-03T06:40:36.346Z,41.70
2017-12-03T06:43:10.292Z,41.60
2017-12-03T06:45:39.683Z,41.50
2017-12-03T06:48:08.863Z,41.50
2017-12-03T06:50:39.225Z,41.60
2017-12-03T06:53:08.449Z,41.60
2017-12-03T06:55:41.574Z,41.90
2017-12-03T06:58:11.441Z,42.20
2017-12-03T07:00:45.339Z,42.20
2017-12-03T07:03:15.170Z,42.10
2017-12-03T07:05:44.307Z,42.10
2017-12-03T07:08:14.909Z,41.90
2017-12-03T07:10:44.041Z,41.80
2017-12-03T07:13:13.364Z,41.70
2017-12-03T07:15:42.539Z,41.70
2017-12-03T07:18:11.547Z,41.60
2017-12-03T07:20:40.278Z,41.60
2017-12-03T07:23:10.087Z,41.50
2017-12-03T07:25:38.959Z,41.40
2017-12-03T07:28:08.162Z,41.40
2017-12-03T07:30:36.627Z,41.50
2017-12-03T07:33:05.374Z,41.80
2017-12-03T07:35:35.174Z,42.20
2017-12-03T07:38:04.274Z,42.20
2017-12-03T07:40:33.907Z,42.10
2017-12-03T07:43:04.357Z,42.00
2017-12-03T07:45:35.373Z,41.90
2017-12-03T07:48:06.000Z,41.70
2017-12-03T07:50:36.098Z,41.70
2017-12-03T07:53:07.202Z,41.60
2017-12-03T07:55:36.113Z,41.50
2017-12-03T07:58:10.793Z,42.00
2017-12-03T08:00:45.493Z,41.40
2017-12-03T08:03:20.696Z,41.30
2017-12-03T08:05:56.314Z,41.30
2017-12-03T08:08:25.105Z,41.30
2017-12-03T08:10:54.359Z,41.70
2017-12-03T08:13:24.694Z,42.00
2017-12-03T08:15:55.695Z,42.10
2017-12-03T08:18:24.834Z,42.10
2017-12-03T08:20:53.495Z,41.90
2017-12-03T08:23:22.235Z,41.80
2017-12-03T08:28:36.916Z,41.60
2017-12-03T08:31:05.757Z,41.50
2017-12-03T08:33:36.530Z,41.40
2017-12-03T08:36:06.201Z,41.30
2017-12-03T08:38:34.817Z,41.30
2017-12-03T08:41:04.135Z,41.20
2017-12-03T08:43:33.573Z,41.10
2017-12-03T08:46:03.498Z,41.20
2017-12-03T08:48:33.064Z,41.50
2017-12-03T08:51:03.723Z,41.80
2017-12-03T08:53:34.422Z,42.10
2017-12-03T08:58:57.131Z,42.50
2017-12-03T09:01:35.792Z,42.70
2017-12-03T09:04:07.520Z,42.40
2017-12-03T09:06:41.682Z,42.30
2017-12-03T09:09:13.150Z,42.10
2017-12-03T09:11:43.840Z,41.80
2017-12-03T09:14:12.895Z,41.80
2017-12-03T09:16:42.411Z,41.60
2017-12-03T09:19:11.552Z,41.60
2017-12-03T09:21:43.982Z,41.50
2017-12-03T09:24:16.958Z,41.40
2017-12-03T09:26:48.547Z,41.30
2017-12-03T09:29:21.117Z,41.50
2017-12-03T09:31:52.152Z,42.20
2017-12-03T09:37:06.632Z,42.00
2017-12-03T09:39:38.851Z,42.70
2017-12-03T09:42:10.198Z,42.00
2017-12-03T09:44:41.444Z,41.80
2017-12-03T09:47:12.408Z,41.70
2017-12-03T09:49:48.545Z,41.60
2017-12-03T09:52:26.791Z,41.50
2017-12-03T09:55:03.091Z,41.40
2017-12-03T09:57:38.370Z,41.40
2017-12-03T10:00:10.095Z,41.30
2017-12-03T10:02:41.389Z,41.20
2017-12-03T10:05:13.363Z,41.20
2017-12-03T10:07:47.161Z,41.20
2017-12-03T10:10:22.452Z,41.30
2017-12-03T10:12:58.503Z,41.60
2017-12-03T10:18:19.353Z,42.60
2017-12-03T10:23:37.787Z,41.70
2017-12-03T10:34:28.021Z,41.90
2017-12-03T10:37:02.129Z,41.20
2017-12-03T10:39:38.140Z,41.10
2017-12-03T10:42:12.038Z,41.20
2017-12-03T10:44:45.503Z,41.10
2017-12-03T10:47:22.300Z,41.20
2017-12-03T10:49:52.560Z,41.40
2017-12-03T10:52:28.198Z,41.70
2017-12-03T10:55:06.401Z,41.80
2017-12-03T10:57:42.342Z,41.70
2017-12-03T11:00:18.800Z,41.60
2017-12-03T11:05:39.620Z,41.40
2017-12-03T11:08:17.719Z,41.40
2017-12-03T11:10:59.590Z,41.40
2017-12-03T11:13:38.229Z,41.30
2017-12-03T11:16:19.430Z,41.30
2017-12-03T11:49:16.726Z,42.00
2017-12-03T11:51:48.440Z,41.50
2017-12-03T11:54:33.422Z,41.30
2017-12-03T11:57:08.325Z,41.30
2017-12-03T11:59:42.563Z,41.20
2017-12-03T12:07:40.136Z,41.80
2017-12-03T12:21:08.991Z,42.40
2017-12-03T12:34:46.827Z,41.80
2017-12-03T12:51:10.722Z,41.70
2017-12-03T12:53:45.718Z,42.00
2017-12-03T12:56:25.916Z,42.20
2017-12-03T12:58:59.888Z,42.10
2017-12-03T13:01:31.861Z,42.00
2017-12-03T13:04:11.815Z,41.80
2017-12-03T13:06:42.513Z,41.70
2017-12-03T13:14:49.180Z,42.00
2017-12-03T13:17:21.879Z,41.30
2017-12-03T13:19:54.981Z,41.30
2017-12-03T13:22:25.636Z,41.40
2017-12-03T13:24:55.943Z,41.30
2017-12-03T13:27:27.638Z,41.50
2017-12-03T13:29:58.375Z,41.80
2017-12-03T13:32:28.411Z,42.00
2017-12-03T13:34:59.218Z,42.70
2017-12-03T13:37:29.850Z,42.00
2017-12-03T13:40:01.365Z,41.90
2017-12-03T13:42:33.599Z,41.80
2017-12-03T13:45:04.759Z,41.60
2017-12-03T13:47:36.014Z,41.50
2017-12-03T13:50:05.756Z,41.50
2017-12-03T13:52:40.428Z,41.40
2017-12-03T13:55:20.025Z,41.30
2017-12-03T13:57:53.035Z,41.30
2017-12-03T14:00:25.325Z,41.30
2017-12-03T14:02:57.130Z,41.40
2017-12-03T14:05:28.039Z,41.40
2017-12-03T14:07:59.215Z,41.80
2017-12-03T14:10:40.013Z,42.10
2017-12-03T14:13:12.313Z,42.10
2017-12-03T14:15:42.867Z,41.90
2017-12-03T14:18:15.531Z,41.80
2017-12-03T14:20:47.037Z,41.70
2017-12-03T14:23:19.273Z,41.60
2017-12-03T14:25:50.535Z,41.60
2017-12-03T14:28:25.935Z,41.50
2017-12-03T14:31:00.574Z,41.50
2017-12-03T14:36:12.970Z,41.30
2017-12-03T14:38:44.864Z,41.30
2017-12-03T14:41:15.362Z,41.30
2017-12-03T14:43:52.467Z,41.60
2017-12-03T14:46:23.861Z,41.80
2017-12-03T14:48:59.064Z,42.10
2017-12-03T14:51:31.962Z,42.00
2017-12-03T14:54:12.277Z,41.90
2017-12-03T14:56:54.177Z,41.80
2017-12-03T14:59:28.184Z,41.70
2017-12-03T15:04:50.729Z,41.80
2017-12-03T15:09:59.984Z,41.50
2017-12-03T15:12:30.770Z,41.60
2017-12-03T15:15:04.663Z,41.40
2017-12-03T15:17:49.556Z,41.40
2017-12-03T15:20:25.663Z,41.60
2017-12-03T15:25:36.927Z,42.20
2017-12-03T16:12:27.130Z,42.50
2017-12-03T16:37:08.735Z,41.80
2017-12-03T17:35:02.338Z,42.20
2017-12-03T19:37:35.838Z,42.40
2017-12-03T20:07:59.534Z,42.60
2017-12-03T20:38:21.345Z,41.90
2017-12-03T22:38:08.852Z,42.40
2017-12-03T22:40:43.852Z,42.60
2017-12-03T22:43:14.520Z,42.90
2017-12-03T22:45:45.283Z,43.10
2017-12-03T22:48:17.751Z,43.10
2017-12-03T22:53:26.539Z,42.90
2017-12-03T22:56:03.656Z,42.70
2017-12-03T23:01:18.991Z,42.60
2017-12-03T23:03:50.044Z,42.50
2017-12-03T23:06:22.928Z,42.50
2017-12-03T23:09:04.835Z,42.40
2017-12-03T23:11:43.470Z,42.30
2017-12-03T23:14:16.916Z,42.30
2017-12-03T23:16:51.019Z,42.30
2017-12-03T23:19:21.463Z,42.50
2017-12-03T23:21:54.423Z,43.00
2017-12-03T23:24:25.999Z,43.00
2017-12-03T23:27:03.036Z,42.90
2017-12-03T23:29:39.376Z,42.80
2017-12-03T23:32:20.431Z,42.80
2017-12-03T23:34:51.423Z,42.70
2017-12-03T23:37:22.944Z,42.50
2017-12-03T23:39:53.545Z,42.50
2017-12-03T23:42:24.348Z,42.50
2017-12-03T23:44:54.811Z,42.40
2017-12-03T23:47:28.689Z,42.30
2017-12-03T23:49:58.842Z,42.30
2017-12-03T23:52:34.371Z,42.20
2017-12-03T23:55:04.898Z,42.30
2017-12-03T23:57:34.595Z,42.60
